sensor_id;sensor_type;location;lat;lon;timestamp;P1;durP1;ratioP1;P2;durP2;ratioP2
37205;SDS011;23099;42.636;23.198;2022-09-09T00:01:54;13.63;;;10.27;;
37205;SDS011;23099;42.636;23.198;2022-09-09T00:04:26;17.02;;;9.60;;
37205;SDS011;23099;42.636;23.198;2022-09-09T00:07:04;18.98;;;10.07;;
37205;SDS011;23099;42.636;23.198;2022-09-09T00:09:37;12.93;;;9.25;;
37205;SDS011;23099;42.636;23.198;2022-09-09T00:12:13;12.07;;;9.30;;
37205;SDS011;23099;42.636;23.198;2022-09-09T00:14:45;16.40;;;10.27;;
37205;SDS011;23099;42.636;23.198;2022-09-09T00:17:24;12.98;;;9.90;;
37205;SDS011;23099;42.636;23.198;2022-09-09T00:20:01;13.52;;;9.95;;
37205;SDS011;23099;42.636;23.198;2022-09-09T00:22:35;14.82;;;9.90;;
37205;SDS011;23099;42.636;23.198;2022-09-09T00:25:09;15.13;;;9.98;;
37205;SDS011;23099;42.636;23.198;2022-09-09T00:27:40;12.43;;;9.05;;
37205;SDS011;23099;42.636;23.198;2022-09-09T00:30:14;18.95;;;9.95;;
37205;SDS011;23099;42.636;23.198;2022-09-09T00:32:45;14.43;;;9.60;;
37205;SDS011;23099;42.636;23.198;2022-09-09T00:35:14;13.40;;;9.25;;
37205;SDS011;23099;42.636;23.198;2022-09-09T00:37:44;15.07;;;9.80;;
37205;SDS011;23099;42.636;23.198;2022-09-09T00:40:18;14.82;;;9.40;;
37205;SDS011;23099;42.636;23.198;2022-09-09T00:42:54;13.73;;;9.57;;
37205;SDS011;23099;42.636;23.198;2022-09-09T00:48:22;14.18;;;9.25;;
37205;SDS011;23099;42.636;23.198;2022-09-09T00:50:59;16.42;;;10.13;;
37205;SDS011;23099;42.636;23.198;2022-09-09T00:53:34;13.13;;;9.05;;
37205;SDS011;23099;42.636;23.198;2022-09-09T00:56:09;14.15;;;9.98;;
37205;SDS011;23099;42.636;23.198;2022-09-09T00:58:42;14.52;;;9.38;;
37205;SDS011;23099;42.636;23.198;2022-09-09T01:01:10;14.90;;;9.68;;
37205;SDS011;23099;42.636;23.198;2022-09-09T01:03:40;12.45;;;9.65;;
37205;SDS011;23099;42.636;23.198;2022-09-09T01:06:15;14.55;;;9.45;;
37205;SDS011;23099;42.636;23.198;2022-09-09T01:11:38;14.85;;;9.93;;
37205;SDS011;23099;42.636;23.198;2022-09-09T01:14:19;15.35;;;10.35;;
37205;SDS011;23099;42.636;23.198;2022-09-09T01:16:53;14.63;;;10.02;;
37205;SDS011;23099;42.636;23.198;2022-09-09T01:19:24;15.60;;;9.68;;
37205;SDS011;23099;42.636;23.198;2022-09-09T01:22:06;13.52;;;9.20;;
37205;SDS011;23099;42.636;23.198;2022-09-09T01:24:43;15.85;;;10.00;;
37205;SDS011;23099;42.636;23.198;2022-09-09T01:27:22;15.35;;;9.73;;
37205;SDS011;23099;42.636;23.198;2022-09-09T01:29:50;13.73;;;9.73;;
37205;SDS011;23099;42.636;23.198;2022-09-09T01:35:07;16.60;;;11.35;;
37205;SDS011;23099;42.636;23.198;2022-09-09T01:37:37;16.60;;;11.43;;
37205;SDS011;23099;42.636;23.198;2022-09-09T01:40:04;16.15;;;10.75;;
37205;SDS011;23099;42.636;23.198;2022-09-09T01:42:33;16.98;;;10.43;;
37205;SDS011;23099;42.636;23.198;2022-09-09T01:45:00;16.52;;;10.30;;
37205;SDS011;23099;42.636;23.198;2022-09-09T01:47:27;18.30;;;10.68;;
37205;SDS011;23099;42.636;23.198;2022-09-09T01:49:53;14.63;;;10.32;;
37205;SDS011;23099;42.636;23.198;2022-09-09T01:52:20;15.63;;;10.90;;
37205;SDS011;23099;42.636;23.198;2022-09-09T01:54:47;16.08;;;10.65;;
37205;SDS011;23099;42.636;23.198;2022-09-09T01:57:15;13.98;;;9.60;;
37205;SDS011;23099;42.636;23.198;2022-09-09T01:59:50;15.98;;;10.02;;
37205;SDS011;23099;42.636;23.198;2022-09-09T02:02:28;16.38;;;9.98;;
37205;SDS011;23099;42.636;23.198;2022-09-09T02:05:01;15.73;;;10.18;;
37205;SDS011;23099;42.636;23.198;2022-09-09T02:07:38;15.48;;;9.55;;
37205;SDS011;23099;42.636;23.198;2022-09-09T02:10:09;13.30;;;9.75;;
37205;SDS011;23099;42.636;23.198;2022-09-09T02:12:39;14.93;;;10.20;;
37205;SDS011;23099;42.636;23.198;2022-09-09T02:15:13;15.73;;;9.98;;
37205;SDS011;23099;42.636;23.198;2022-09-09T02:17:47;15.20;;;9.85;;
37205;SDS011;23099;42.636;23.198;2022-09-09T02:20:17;13.70;;;9.68;;
37205;SDS011;23099;42.636;23.198;2022-09-09T02:22:46;14.68;;;10.15;;
37205;SDS011;23099;42.636;23.198;2022-09-09T02:25:15;13.85;;;9.60;;
37205;SDS011;23099;42.636;23.198;2022-09-09T02:27:45;14.52;;;9.70;;
37205;SDS011;23099;42.636;23.198;2022-09-09T02:30:17;14.93;;;9.50;;
37205;SDS011;23099;42.636;23.198;2022-09-09T02:32:45;14.18;;;9.25;;
37205;SDS011;23099;42.636;23.198;2022-09-09T02:35:15;13.38;;;8.85;;
37205;SDS011;23099;42.636;23.198;2022-09-09T02:37:46;14.05;;;9.63;;
37205;SDS011;23099;42.636;23.198;2022-09-09T02:40:13;14.50;;;9.65;;
37205;SDS011;23099;42.636;23.198;2022-09-09T02:42:42;15.23;;;9.75;;
37205;SDS011;23099;42.636;23.198;2022-09-09T02:45:10;15.15;;;9.88;;
37205;SDS011;23099;42.636;23.198;2022-09-09T02:47:41;16.63;;;10.30;;
37205;SDS011;23099;42.636;23.198;2022-09-09T02:50:15;15.85;;;8.88;;
37205;SDS011;23099;42.636;23.198;2022-09-09T02:52:49;13.25;;;9.32;;
37205;SDS011;23099;42.636;23.198;2022-09-09T02:55:34;14.38;;;9.27;;
37205;SDS011;23099;42.636;23.198;2022-09-09T02:58:06;14.20;;;9.93;;
37205;SDS011;23099;42.636;23.198;2022-09-09T03:00:36;13.88;;;9.80;;
37205;SDS011;23099;42.636;23.198;2022-09-09T03:03:06;15.00;;;9.43;;
37205;SDS011;23099;42.636;23.198;2022-09-09T03:05:33;12.25;;;9.27;;
37205;SDS011;23099;42.636;23.198;2022-09-09T03:08:00;14.20;;;9.65;;
37205;SDS011;23099;42.636;23.198;2022-09-09T03:10:28;14.43;;;9.43;;
37205;SDS011;23099;42.636;23.198;2022-09-09T03:12:55;16.42;;;10.82;;
37205;SDS011;23099;42.636;23.198;2022-09-09T03:15:21;17.15;;;10.85;;
37205;SDS011;23099;42.636;23.198;2022-09-09T03:17:48;16.45;;;10.73;;
37205;SDS011;23099;42.636;23.198;2022-09-09T03:20:17;20.05;;;10.38;;
37205;SDS011;23099;42.636;23.198;2022-09-09T03:22:44;15.27;;;10.32;;
37205;SDS011;23099;42.636;23.198;2022-09-09T03:25:10;16.17;;;10.13;;
37205;SDS011;23099;42.636;23.198;2022-09-09T03:27:37;18.13;;;10.20;;
37205;SDS011;23099;42.636;23.198;2022-09-09T03:30:04;16.88;;;10.80;;
37205;SDS011;23099;42.636;23.198;2022-09-09T03:32:32;15.52;;;9.70;;
37205;SDS011;23099;42.636;23.198;2022-09-09T03:34:58;14.52;;;10.13;;
37205;SDS011;23099;42.636;23.198;2022-09-09T03:37:26;15.15;;;11.00;;
37205;SDS011;23099;42.636;23.198;2022-09-09T03:39:53;16.35;;;10.35;;
37205;SDS011;23099;42.636;23.198;2022-09-09T03:42:20;18.58;;;10.18;;
37205;SDS011;23099;42.636;23.198;2022-09-09T03:44:47;14.68;;;10.27;;
37205;SDS011;23099;42.636;23.198;2022-09-09T03:47:15;17.05;;;11.20;;
37205;SDS011;23099;42.636;23.198;2022-09-09T03:49:43;19.15;;;11.70;;
37205;SDS011;23099;42.636;23.198;2022-09-09T03:52:10;16.92;;;11.45;;
37205;SDS011;23099;42.636;23.198;2022-09-09T03:54:38;17.40;;;10.80;;
37205;SDS011;23099;42.636;23.198;2022-09-09T03:57:07;18.73;;;11.38;;
37205;SDS011;23099;42.636;23.198;2022-09-09T03:59:35;17.73;;;12.33;;
37205;SDS011;23099;42.636;23.198;2022-09-09T04:02:02;17.67;;;11.48;;
37205;SDS011;23099;42.636;23.198;2022-09-09T04:04:29;19.17;;;11.35;;
37205;SDS011;23099;42.636;23.198;2022-09-09T04:06:56;16.98;;;11.90;;
37205;SDS011;23099;42.636;23.198;2022-09-09T04:09:22;19.80;;;11.52;;
37205;SDS011;23099;42.636;23.198;2022-09-09T04:11:51;16.50;;;10.80;;
37205;SDS011;23099;42.636;23.198;2022-09-09T04:14:18;16.58;;;11.02;;
37205;SDS011;23099;42.636;23.198;2022-09-09T04:16:45;17.73;;;11.75;;
37205;SDS011;23099;42.636;23.198;2022-09-09T04:19:12;16.40;;;10.73;;
37205;SDS011;23099;42.636;23.198;2022-09-09T04:21:39;18.98;;;11.70;;
37205;SDS011;23099;42.636;23.198;2022-09-09T04:24:06;16.85;;;11.57;;
37205;SDS011;23099;42.636;23.198;2022-09-09T04:26:34;17.40;;;10.90;;
37205;SDS011;23099;42.636;23.198;2022-09-09T04:29:03;15.40;;;11.05;;
37205;SDS011;23099;42.636;23.198;2022-09-09T04:31:32;15.55;;;10.93;;
37205;SDS011;23099;42.636;23.198;2022-09-09T04:34:00;14.73;;;10.25;;
37205;SDS011;23099;42.636;23.198;2022-09-09T04:36:30;18.25;;;10.68;;
37205;SDS011;23099;42.636;23.198;2022-09-09T04:38:57;15.90;;;10.88;;
37205;SDS011;23099;42.636;23.198;2022-09-09T04:41:24;20.00;;;11.15;;
37205;SDS011;23099;42.636;23.198;2022-09-09T04:43:51;16.60;;;10.88;;
37205;SDS011;23099;42.636;23.198;2022-09-09T04:46:19;17.80;;;10.70;;
37205;SDS011;23099;42.636;23.198;2022-09-09T04:48:48;18.50;;;10.63;;
37205;SDS011;23099;42.636;23.198;2022-09-09T04:51:15;16.23;;;10.80;;
37205;SDS011;23099;42.636;23.198;2022-09-09T04:53:42;15.70;;;10.77;;
37205;SDS011;23099;42.636;23.198;2022-09-09T04:56:09;17.75;;;10.57;;
37205;SDS011;23099;42.636;23.198;2022-09-09T04:58:37;18.95;;;10.00;;
37205;SDS011;23099;42.636;23.198;2022-09-09T05:01:07;17.02;;;10.65;;
37205;SDS011;23099;42.636;23.198;2022-09-09T05:03:36;16.45;;;11.15;;
37205;SDS011;23099;42.636;23.198;2022-09-09T05:06:04;19.58;;;11.05;;
37205;SDS011;23099;42.636;23.198;2022-09-09T05:08:33;18.35;;;11.02;;
37205;SDS011;23099;42.636;23.198;2022-09-09T05:11:01;16.10;;;11.07;;
37205;SDS011;23099;42.636;23.198;2022-09-09T05:13:28;19.98;;;11.05;;
37205;SDS011;23099;42.636;23.198;2022-09-09T05:15:57;19.98;;;11.43;;
37205;SDS011;23099;42.636;23.198;2022-09-09T05:18:23;14.15;;;10.05;;
37205;SDS011;23099;42.636;23.198;2022-09-09T05:20:51;16.65;;;10.63;;
37205;SDS011;23099;42.636;23.198;2022-09-09T05:23:18;17.42;;;12.07;;
37205;SDS011;23099;42.636;23.198;2022-09-09T05:25:53;17.90;;;11.27;;
37205;SDS011;23099;42.636;23.198;2022-09-09T05:28:22;16.40;;;10.75;;
37205;SDS011;23099;42.636;23.198;2022-09-09T05:30:54;20.13;;;11.02;;
37205;SDS011;23099;42.636;23.198;2022-09-09T05:33:22;19.55;;;11.88;;
37205;SDS011;23099;42.636;23.198;2022-09-09T05:35:55;19.33;;;12.70;;
37205;SDS011;23099;42.636;23.198;2022-09-09T05:38:27;16.43;;;11.70;;
37205;SDS011;23099;42.636;23.198;2022-09-09T05:40:54;16.52;;;10.50;;
37205;SDS011;23099;42.636;23.198;2022-09-09T05:43:21;16.87;;;10.93;;
37205;SDS011;23099;42.636;23.198;2022-09-09T05:45:58;15.63;;;10.18;;
37205;SDS011;23099;42.636;23.198;2022-09-09T05:50:54;16.67;;;10.57;;
37205;SDS011;23099;42.636;23.198;2022-09-09T05:53:22;14.55;;;10.27;;
37205;SDS011;23099;42.636;23.198;2022-09-09T05:55:48;17.65;;;9.57;;
37205;SDS011;23099;42.636;23.198;2022-09-09T05:58:15;19.88;;;10.43;;
37205;SDS011;23099;42.636;23.198;2022-09-09T06:00:42;15.18;;;10.50;;
37205;SDS011;23099;42.636;23.198;2022-09-09T06:03:10;16.70;;;10.80;;
37205;SDS011;23099;42.636;23.198;2022-09-09T06:05:37;17.38;;;11.50;;
37205;SDS011;23099;42.636;23.198;2022-09-09T06:08:05;15.45;;;11.45;;
37205;SDS011;23099;42.636;23.198;2022-09-09T06:10:32;18.67;;;11.48;;
37205;SDS011;23099;42.636;23.198;2022-09-09T06:12:59;16.40;;;11.10;;
37205;SDS011;23099;42.636;23.198;2022-09-09T06:15:26;18.77;;;11.80;;
37205;SDS011;23099;42.636;23.198;2022-09-09T06:17:55;18.45;;;11.25;;
37205;SDS011;23099;42.636;23.198;2022-09-09T06:20:21;19.50;;;12.07;;
37205;SDS011;23099;42.636;23.198;2022-09-09T06:22:49;15.77;;;11.07;;
37205;SDS011;23099;42.636;23.198;2022-09-09T06:25:17;16.42;;;11.23;;
37205;SDS011;23099;42.636;23.198;2022-09-09T06:27:47;22.45;;;11.57;;
37205;SDS011;23099;42.636;23.198;2022-09-09T06:30:15;18.13;;;10.82;;
37205;SDS011;23099;42.636;23.198;2022-09-09T06:32:43;14.85;;;10.73;;
37205;SDS011;23099;42.636;23.198;2022-09-09T06:35:10;16.45;;;11.68;;
37205;SDS011;23099;42.636;23.198;2022-09-09T06:37:36;22.02;;;11.25;;
37205;SDS011;23099;42.636;23.198;2022-09-09T06:40:03;15.82;;;11.38;;
37205;SDS011;23099;42.636;23.198;2022-09-09T06:42:32;17.30;;;11.40;;
37205;SDS011;23099;42.636;23.198;2022-09-09T06:44:59;14.52;;;10.70;;
37205;SDS011;23099;42.636;23.198;2022-09-09T06:47:25;14.32;;;10.80;;
37205;SDS011;23099;42.636;23.198;2022-09-09T06:49:54;14.75;;;10.02;;
37205;SDS011;23099;42.636;23.198;2022-09-09T06:52:21;14.67;;;10.43;;
37205;SDS011;23099;42.636;23.198;2022-09-09T06:57:16;18.83;;;10.02;;
37205;SDS011;23099;42.636;23.198;2022-09-09T06:59:44;16.85;;;10.05;;
37205;SDS011;23099;42.636;23.198;2022-09-09T07:02:11;15.25;;;11.10;;
37205;SDS011;23099;42.636;23.198;2022-09-09T07:04:37;17.10;;;9.75;;
37205;SDS011;23099;42.636;23.198;2022-09-09T07:07:04;14.57;;;9.68;;
37205;SDS011;23099;42.636;23.198;2022-09-09T07:09:31;14.25;;;9.35;;
37205;SDS011;23099;42.636;23.198;2022-09-09T07:11:57;14.40;;;8.55;;
37205;SDS011;23099;42.636;23.198;2022-09-09T07:14:25;14.10;;;9.30;;
37205;SDS011;23099;42.636;23.198;2022-09-09T07:16:53;13.67;;;9.40;;
37205;SDS011;23099;42.636;23.198;2022-09-09T07:19:20;13.43;;;8.90;;
37205;SDS011;23099;42.636;23.198;2022-09-09T07:21:47;15.20;;;9.13;;
37205;SDS011;23099;42.636;23.198;2022-09-09T07:24:14;13.98;;;8.35;;
37205;SDS011;23099;42.636;23.198;2022-09-09T07:26:41;15.65;;;8.70;;
37205;SDS011;23099;42.636;23.198;2022-09-09T07:29:09;13.93;;;8.32;;
37205;SDS011;23099;42.636;23.198;2022-09-09T07:31:39;14.60;;;8.40;;
37205;SDS011;23099;42.636;23.198;2022-09-09T07:34:07;12.57;;;7.57;;
37205;SDS011;23099;42.636;23.198;2022-09-09T07:36:35;14.50;;;7.45;;
37205;SDS011;23099;42.636;23.198;2022-09-09T07:39:03;11.98;;;6.30;;
37205;SDS011;23099;42.636;23.198;2022-09-09T07:41:33;15.70;;;6.25;;
37205;SDS011;23099;42.636;23.198;2022-09-09T07:44:04;12.40;;;5.88;;
37205;SDS011;23099;42.636;23.198;2022-09-09T07:46:31;12.43;;;5.68;;
37205;SDS011;23099;42.636;23.198;2022-09-09T07:48:59;14.77;;;7.03;;
37205;SDS011;23099;42.636;23.198;2022-09-09T07:51:27;11.35;;;6.22;;
37205;SDS011;23099;42.636;23.198;2022-09-09T07:53:56;15.85;;;6.10;;
37205;SDS011;23099;42.636;23.198;2022-09-09T07:56:25;9.27;;;5.18;;
37205;SDS011;23099;42.636;23.198;2022-09-09T08:01:21;13.27;;;5.85;;
37205;SDS011;23099;42.636;23.198;2022-09-09T08:03:52;14.77;;;5.93;;
37205;SDS011;23099;42.636;23.198;2022-09-09T08:06:20;12.82;;;5.82;;
37205;SDS011;23099;42.636;23.198;2022-09-09T08:08:51;12.13;;;5.40;;
37205;SDS011;23099;42.636;23.198;2022-09-09T08:11:20;12.52;;;5.43;;
37205;SDS011;23099;42.636;23.198;2022-09-09T08:16:16;15.57;;;8.15;;
37205;SDS011;23099;42.636;23.198;2022-09-09T08:18:46;13.93;;;7.50;;
37205;SDS011;23099;42.636;23.198;2022-09-09T08:21:15;14.68;;;8.23;;
37205;SDS011;23099;42.636;23.198;2022-09-09T08:23:44;16.48;;;7.30;;
37205;SDS011;23099;42.636;23.198;2022-09-09T08:26:14;14.73;;;7.10;;
37205;SDS011;23099;42.636;23.198;2022-09-09T08:28:42;17.10;;;8.20;;
37205;SDS011;23099;42.636;23.198;2022-09-09T08:31:10;13.85;;;8.85;;
37205;SDS011;23099;42.636;23.198;2022-09-09T08:33:39;13.73;;;7.72;;
37205;SDS011;23099;42.636;23.198;2022-09-09T08:36:06;12.73;;;6.40;;
37205;SDS011;23099;42.636;23.198;2022-09-09T08:38:36;11.38;;;5.90;;
37205;SDS011;23099;42.636;23.198;2022-09-09T08:41:11;10.40;;;6.47;;
37205;SDS011;23099;42.636;23.198;2022-09-09T08:43:58;11.23;;;5.72;;
37205;SDS011;23099;42.636;23.198;2022-09-09T08:46:33;14.27;;;6.45;;
37205;SDS011;23099;42.636;23.198;2022-09-09T08:49:06;11.82;;;6.15;;
37205;SDS011;23099;42.636;23.198;2022-09-09T08:51:45;13.10;;;5.60;;
37205;SDS011;23099;42.636;23.198;2022-09-09T08:54:14;11.15;;;5.50;;
37205;SDS011;23099;42.636;23.198;2022-09-09T08:56:43;10.00;;;5.53;;
37205;SDS011;23099;42.636;23.198;2022-09-09T08:59:11;14.15;;;5.78;;
37205;SDS011;23099;42.636;23.198;2022-09-09T09:04:44;14.50;;;6.53;;
37205;SDS011;23099;42.636;23.198;2022-09-09T09:09:53;10.50;;;5.32;;
37205;SDS011;23099;42.636;23.198;2022-09-09T09:12:30;15.60;;;6.47;;
37205;SDS011;23099;42.636;23.198;2022-09-09T09:15:01;12.00;;;5.60;;
37205;SDS011;23099;42.636;23.198;2022-09-09T09:17:36;9.85;;;5.53;;
37205;SDS011;23099;42.636;23.198;2022-09-09T09:20:05;12.02;;;5.78;;
37205;SDS011;23099;42.636;23.198;2022-09-09T09:22:39;13.25;;;5.53;;
37205;SDS011;23099;42.636;23.198;2022-09-09T09:25:14;14.70;;;6.25;;
37205;SDS011;23099;42.636;23.198;2022-09-09T09:27:47;15.40;;;5.95;;
37205;SDS011;23099;42.636;23.198;2022-09-09T09:30:20;10.05;;;5.78;;
37205;SDS011;23099;42.636;23.198;2022-09-09T09:32:50;12.75;;;5.40;;
37205;SDS011;23099;42.636;23.198;2022-09-09T09:35:25;12.45;;;5.93;;
37205;SDS011;23099;42.636;23.198;2022-09-09T09:37:52;13.77;;;6.53;;
37205;SDS011;23099;42.636;23.198;2022-09-09T09:40:20;14.90;;;6.38;;
37205;SDS011;23099;42.636;23.198;2022-09-09T09:42:50;10.23;;;5.88;;
37205;SDS011;23099;42.636;23.198;2022-09-09T09:45:26;11.57;;;6.63;;
37205;SDS011;23099;42.636;23.198;2022-09-09T09:47:59;14.40;;;6.18;;
37205;SDS011;23099;42.636;23.198;2022-09-09T09:50:28;15.77;;;6.03;;
37205;SDS011;23099;42.636;23.198;2022-09-09T09:52:56;13.95;;;5.90;;
37205;SDS011;23099;42.636;23.198;2022-09-09T09:55:25;11.43;;;6.32;;
37205;SDS011;23099;42.636;23.198;2022-09-09T09:57:53;14.87;;;6.67;;
37205;SDS011;23099;42.636;23.198;2022-09-09T10:00:26;13.80;;;6.63;;
37205;SDS011;23099;42.636;23.198;2022-09-09T10:02:53;14.90;;;6.97;;
37205;SDS011;23099;42.636;23.198;2022-09-09T10:05:21;12.77;;;6.00;;
37205;SDS011;23099;42.636;23.198;2022-09-09T10:08:00;12.15;;;6.70;;
37205;SDS011;23099;42.636;23.198;2022-09-09T10:10:37;12.60;;;6.55;;
37205;SDS011;23099;42.636;23.198;2022-09-09T10:13:17;11.52;;;6.75;;
37205;SDS011;23099;42.636;23.198;2022-09-09T10:15:51;15.40;;;6.68;;
37205;SDS011;23099;42.636;23.198;2022-09-09T10:18:36;14.30;;;6.30;;
37205;SDS011;23099;42.636;23.198;2022-09-09T10:21:15;15.18;;;7.07;;
37205;SDS011;23099;42.636;23.198;2022-09-09T10:23:56;16.55;;;7.32;;
37205;SDS011;23099;42.636;23.198;2022-09-09T10:26:40;14.23;;;8.50;;
37205;SDS011;23099;42.636;23.198;2022-09-09T10:29:19;15.82;;;8.48;;
37205;SDS011;23099;42.636;23.198;2022-09-09T10:31:58;17.50;;;7.75;;
37205;SDS011;23099;42.636;23.198;2022-09-09T10:34:42;19.48;;;8.30;;
37205;SDS011;23099;42.636;23.198;2022-09-09T10:37:23;22.45;;;8.27;;
37205;SDS011;23099;42.636;23.198;2022-09-09T10:40:06;15.50;;;8.25;;
37205;SDS011;23099;42.636;23.198;2022-09-09T10:42:46;15.05;;;7.15;;
37205;SDS011;23099;42.636;23.198;2022-09-09T10:45:17;18.38;;;8.35;;
37205;SDS011;23099;42.636;23.198;2022-09-09T10:47:51;16.88;;;7.97;;
37205;SDS011;23099;42.636;23.198;2022-09-09T10:50:48;17.13;;;7.25;;
37205;SDS011;23099;42.636;23.198;2022-09-09T10:55:53;16.17;;;8.20;;
37205;SDS011;23099;42.636;23.198;2022-09-09T10:58:33;17.98;;;8.05;;
37205;SDS011;23099;42.636;23.198;2022-09-09T11:01:11;14.75;;;7.88;;
37205;SDS011;23099;42.636;23.198;2022-09-09T11:03:42;17.73;;;7.65;;
37205;SDS011;23099;42.636;23.198;2022-09-09T11:06:14;15.40;;;8.25;;
37205;SDS011;23099;42.636;23.198;2022-09-09T11:08:45;15.48;;;7.43;;
37205;SDS011;23099;42.636;23.198;2022-09-09T11:11:16;17.42;;;7.80;;
37205;SDS011;23099;42.636;23.198;2022-09-09T11:13:48;15.68;;;7.63;;
37205;SDS011;23099;42.636;23.198;2022-09-09T11:16:24;16.30;;;7.65;;
37205;SDS011;23099;42.636;23.198;2022-09-09T11:18:55;16.15;;;7.50;;
37205;SDS011;23099;42.636;23.198;2022-09-09T11:21:27;19.55;;;7.65;;
37205;SDS011;23099;42.636;23.198;2022-09-09T11:23:58;16.30;;;7.35;;
37205;SDS011;23099;42.636;23.198;2022-09-09T11:26:30;14.55;;;7.95;;
37205;SDS011;23099;42.636;23.198;2022-09-09T11:29:08;16.73;;;8.50;;
37205;SDS011;23099;42.636;23.198;2022-09-09T11:31:54;23.63;;;8.95;;
37205;SDS011;23099;42.636;23.198;2022-09-09T11:34:36;16.95;;;8.70;;
37205;SDS011;23099;42.636;23.198;2022-09-09T11:40:09;18.30;;;8.30;;
37205;SDS011;23099;42.636;23.198;2022-09-09T11:42:43;13.98;;;7.88;;
37205;SDS011;23099;42.636;23.198;2022-09-09T11:45:11;16.25;;;8.80;;
37205;SDS011;23099;42.636;23.198;2022-09-09T11:47:52;16.75;;;9.00;;
37205;SDS011;23099;42.636;23.198;2022-09-09T11:50:28;14.95;;;7.45;;
37205;SDS011;23099;42.636;23.198;2022-09-09T11:53:04;16.38;;;8.35;;
37205;SDS011;23099;42.636;23.198;2022-09-09T11:55:45;15.18;;;7.25;;
37205;SDS011;23099;42.636;23.198;2022-09-09T11:58:15;17.67;;;7.28;;
37205;SDS011;23099;42.636;23.198;2022-09-09T12:00:44;18.45;;;7.82;;
37205;SDS011;23099;42.636;23.198;2022-09-09T12:06:14;15.48;;;6.82;;
37205;SDS011;23099;42.636;23.198;2022-09-09T12:08:46;15.60;;;6.28;;
37205;SDS011;23099;42.636;23.198;2022-09-09T12:11:24;13.15;;;6.40;;
37205;SDS011;23099;42.636;23.198;2022-09-09T12:13:53;16.50;;;6.10;;
37205;SDS011;23099;42.636;23.198;2022-09-09T12:16:27;12.23;;;5.47;;
37205;SDS011;23099;42.636;23.198;2022-09-09T12:19:13;12.68;;;6.75;;
37205;SDS011;23099;42.636;23.198;2022-09-09T12:21:45;14.65;;;5.80;;
37205;SDS011;23099;42.636;23.198;2022-09-09T12:24:19;10.95;;;5.28;;
37205;SDS011;23099;42.636;23.198;2022-09-09T12:26:55;14.73;;;5.32;;
37205;SDS011;23099;42.636;23.198;2022-09-09T12:29:31;12.68;;;5.03;;
37205;SDS011;23099;42.636;23.198;2022-09-09T12:32:10;12.95;;;5.35;;
37205;SDS011;23099;42.636;23.198;2022-09-09T12:34:39;16.77;;;4.95;;
37205;SDS011;23099;42.636;23.198;2022-09-09T12:37:13;13.90;;;4.63;;
37205;SDS011;23099;42.636;23.198;2022-09-09T12:39:45;15.93;;;5.47;;
37205;SDS011;23099;42.636;23.198;2022-09-09T12:42:17;15.10;;;5.32;;
37205;SDS011;23099;42.636;23.198;2022-09-09T12:44:51;12.52;;;5.30;;
37205;SDS011;23099;42.636;23.198;2022-09-09T12:47:19;10.65;;;5.70;;
37205;SDS011;23099;42.636;23.198;2022-09-09T12:49:50;13.07;;;5.57;;
37205;SDS011;23099;42.636;23.198;2022-09-09T12:52:20;9.48;;;4.97;;
37205;SDS011;23099;42.636;23.198;2022-09-09T12:54:52;12.82;;;5.63;;
37205;SDS011;23099;42.636;23.198;2022-09-09T12:57:19;14.30;;;5.40;;
37205;SDS011;23099;42.636;23.198;2022-09-09T12:59:50;11.73;;;5.30;;
37205;SDS011;23099;42.636;23.198;2022-09-09T13:02:19;10.32;;;5.78;;
37205;SDS011;23099;42.636;23.198;2022-09-09T13:04:47;10.32;;;5.93;;
37205;SDS011;23099;42.636;23.198;2022-09-09T13:09:44;13.33;;;5.93;;
37205;SDS011;23099;42.636;23.198;2022-09-09T13:12:13;23.42;;;6.03;;
37205;SDS011;23099;42.636;23.198;2022-09-09T13:14:43;13.90;;;5.18;;
37205;SDS011;23099;42.636;23.198;2022-09-09T13:17:17;12.32;;;5.40;;
37205;SDS011;23099;42.636;23.198;2022-09-09T13:19:48;16.88;;;5.70;;
37205;SDS011;23099;42.636;23.198;2022-09-09T13:22:20;13.82;;;5.65;;
37205;SDS011;23099;42.636;23.198;2022-09-09T13:24:59;13.65;;;5.70;;
37205;SDS011;23099;42.636;23.198;2022-09-09T13:27:29;11.75;;;5.15;;
37205;SDS011;23099;42.636;23.198;2022-09-09T13:29:58;10.98;;;4.82;;
37205;SDS011;23099;42.636;23.198;2022-09-09T13:32:26;10.85;;;6.00;;
37205;SDS011;23099;42.636;23.198;2022-09-09T13:34:54;16.85;;;6.22;;
37205;SDS011;23099;42.636;23.198;2022-09-09T13:42:24;13.38;;;5.75;;
37205;SDS011;23099;42.636;23.198;2022-09-09T13:44:52;16.33;;;6.43;;
37205;SDS011;23099;42.636;23.198;2022-09-09T13:47:22;14.52;;;6.20;;
37205;SDS011;23099;42.636;23.198;2022-09-09T13:49:55;13.68;;;6.45;;
37205;SDS011;23099;42.636;23.198;2022-09-09T13:52:21;11.85;;;6.15;;
37205;SDS011;23099;42.636;23.198;2022-09-09T13:54:51;15.65;;;6.50;;
37205;SDS011;23099;42.636;23.198;2022-09-09T13:57:20;12.13;;;6.30;;
37205;SDS011;23099;42.636;23.198;2022-09-09T13:59:52;10.88;;;5.90;;
37205;SDS011;23099;42.636;23.198;2022-09-09T14:02:19;17.88;;;6.38;;
37205;SDS011;23099;42.636;23.198;2022-09-09T14:04:48;15.68;;;5.82;;
37205;SDS011;23099;42.636;23.198;2022-09-09T14:07:16;11.90;;;6.07;;
37205;SDS011;23099;42.636;23.198;2022-09-09T14:12:14;11.95;;;5.53;;
37205;SDS011;23099;42.636;23.198;2022-09-09T14:14:42;13.60;;;5.22;;
37205;SDS011;23099;42.636;23.198;2022-09-09T14:17:10;13.50;;;5.65;;
37205;SDS011;23099;42.636;23.198;2022-09-09T14:22:03;8.35;;;4.93;;
37205;SDS011;23099;42.636;23.198;2022-09-09T14:24:30;11.00;;;5.00;;
37205;SDS011;23099;42.636;23.198;2022-09-09T14:26:57;10.85;;;4.57;;
37205;SDS011;23099;42.636;23.198;2022-09-09T14:29:23;9.88;;;4.30;;
37205;SDS011;23099;42.636;23.198;2022-09-09T14:31:51;19.15;;;5.30;;
37205;SDS011;23099;42.636;23.198;2022-09-09T14:34:19;14.80;;;4.53;;
37205;SDS011;23099;42.636;23.198;2022-09-09T14:36:46;11.70;;;4.13;;
37205;SDS011;23099;42.636;23.198;2022-09-09T14:39:13;12.88;;;4.40;;
37205;SDS011;23099;42.636;23.198;2022-09-09T14:41:40;10.25;;;4.13;;
37205;SDS011;23099;42.636;23.198;2022-09-09T14:44:06;8.00;;;3.25;;
37205;SDS011;23099;42.636;23.198;2022-09-09T14:46:34;11.15;;;4.10;;
37205;SDS011;23099;42.636;23.198;2022-09-09T14:49:00;13.93;;;3.75;;
37205;SDS011;23099;42.636;23.198;2022-09-09T14:51:29;11.43;;;3.83;;
37205;SDS011;23099;42.636;23.198;2022-09-09T14:53:56;11.40;;;4.30;;
37205;SDS011;23099;42.636;23.198;2022-09-09T14:56:25;12.55;;;4.70;;
37205;SDS011;23099;42.636;23.198;2022-09-09T14:58:54;11.20;;;4.70;;
37205;SDS011;23099;42.636;23.198;2022-09-09T15:01:23;12.20;;;5.07;;
37205;SDS011;23099;42.636;23.198;2022-09-09T15:03:52;12.55;;;4.85;;
37205;SDS011;23099;42.636;23.198;2022-09-09T15:06:21;14.90;;;4.55;;
37205;SDS011;23099;42.636;23.198;2022-09-09T15:08:51;11.20;;;4.97;;
37205;SDS011;23099;42.636;23.198;2022-09-09T15:11:19;12.70;;;4.47;;
37205;SDS011;23099;42.636;23.198;2022-09-09T15:13:47;16.25;;;5.35;;
37205;SDS011;23099;42.636;23.198;2022-09-09T15:16:17;11.27;;;5.53;;
37205;SDS011;23099;42.636;23.198;2022-09-09T15:18:45;12.65;;;5.70;;
37205;SDS011;23099;42.636;23.198;2022-09-09T15:21:13;14.10;;;5.50;;
37205;SDS011;23099;42.636;23.198;2022-09-09T15:23:41;9.75;;;4.60;;